sensor_id;sensor_type;location;lat;lon;timestamp;P1;durP1;ratioP1;P2;durP2;ratioP2
15082;SDS011;7640;53.116;6.878;2023-07-16T00:00:03;7.40;;;3.70;;
15082;SDS011;7640;53.116;6.878;2023-07-16T00:02:37;5.63;;;2.90;;
15082;SDS011;7640;53.116;6.878;2023-07-16T00:05:06;5.53;;;3.27;;
15082;SDS011;7640;53.116;6.878;2023-07-16T00:07:35;6.20;;;3.37;;
15082;SDS011;7640;53.116;6.878;2023-07-16T00:10:04;9.70;;;3.20;;
15082;SDS011;7640;53.116;6.878;2023-07-16T00:12:33;6.37;;;3.07;;
15082;SDS011;7640;53.116;6.878;2023-07-16T00:15:04;7.43;;;3.20;;
15082;SDS011;7640;53.116;6.878;2023-07-16T00:17:36;9.53;;;2.90;;
15082;SDS011;7640;53.116;6.878;2023-07-16T00:20:05;6.57;;;3.23;;
15082;SDS011;7640;53.116;6.878;2023-07-16T00:22:35;7.47;;;3.43;;
15082;SDS011;7640;53.116;6.878;2023-07-16T00:25:06;7.77;;;3.40;;
15082;SDS011;7640;53.116;6.878;2023-07-16T00:27:35;5.97;;;3.13;;
15082;SDS011;7640;53.116;6.878;2023-07-16T00:30:04;6.10;;;3.27;;
15082;SDS011;7640;53.116;6.878;2023-07-16T00:32:35;6.30;;;3.07;;
15082;SDS011;7640;53.116;6.878;2023-07-16T00:35:05;8.43;;;3.13;;
15082;SDS011;7640;53.116;6.878;2023-07-16T00:37:34;8.43;;;2.93;;
15082;SDS011;7640;53.116;6.878;2023-07-16T00:40:04;8.73;;;3.13;;
15082;SDS011;7640;53.116;6.878;2023-07-16T00:42:34;6.37;;;3.57;;
15082;SDS011;7640;53.116;6.878;2023-07-16T00:45:04;8.10;;;3.57;;
15082;SDS011;7640;53.116;6.878;2023-07-16T00:47:41;7.20;;;3.27;;
15082;SDS011;7640;53.116;6.878;2023-07-16T00:50:11;7.43;;;3.10;;
15082;SDS011;7640;53.116;6.878;2023-07-16T00:52:40;6.73;;;3.20;;
15082;SDS011;7640;53.116;6.878;2023-07-16T00:55:10;9.33;;;3.80;;
15082;SDS011;7640;53.116;6.878;2023-07-16T00:57:39;6.80;;;3.13;;
15082;SDS011;7640;53.116;6.878;2023-07-16T01:00:08;7.93;;;3.77;;
15082;SDS011;7640;53.116;6.878;2023-07-16T01:02:40;5.47;;;3.10;;
15082;SDS011;7640;53.116;6.878;2023-07-16T01:05:08;7.63;;;3.33;;
15082;SDS011;7640;53.116;6.878;2023-07-16T01:07:37;5.47;;;3.33;;
15082;SDS011;7640;53.116;6.878;2023-07-16T01:10:14;8.83;;;3.53;;
15082;SDS011;7640;53.116;6.878;2023-07-16T01:12:44;9.13;;;3.60;;
15082;SDS011;7640;53.116;6.878;2023-07-16T01:15:15;9.07;;;3.90;;
15082;SDS011;7640;53.116;6.878;2023-07-16T01:17:44;8.23;;;3.77;;
15082;SDS011;7640;53.116;6.878;2023-07-16T01:20:13;8.60;;;3.90;;
15082;SDS011;7640;53.116;6.878;2023-07-16T01:22:47;8.87;;;3.90;;
15082;SDS011;7640;53.116;6.878;2023-07-16T01:25:51;8.60;;;3.50;;
15082;SDS011;7640;53.116;6.878;2023-07-16T01:31:46;6.67;;;3.60;;
15082;SDS011;7640;53.116;6.878;2023-07-16T01:34:18;5.70;;;3.07;;
15082;SDS011;7640;53.116;6.878;2023-07-16T01:36:47;9.83;;;3.83;;
15082;SDS011;7640;53.116;6.878;2023-07-16T01:39:17;12.13;;;3.90;;
15082;SDS011;7640;53.116;6.878;2023-07-16T01:41:47;8.50;;;3.50;;
15082;SDS011;7640;53.116;6.878;2023-07-16T01:44:17;10.13;;;3.97;;
15082;SDS011;7640;53.116;6.878;2023-07-16T01:46:46;7.47;;;3.43;;
15082;SDS011;7640;53.116;6.878;2023-07-16T01:49:34;13.00;;;4.07;;
15082;SDS011;7640;53.116;6.878;2023-07-16T01:52:03;7.23;;;3.37;;
15082;SDS011;7640;53.116;6.878;2023-07-16T01:54:35;8.13;;;3.53;;
15082;SDS011;7640;53.116;6.878;2023-07-16T01:57:04;8.30;;;3.60;;
15082;SDS011;7640;53.116;6.878;2023-07-16T01:59:35;10.50;;;4.00;;
15082;SDS011;7640;53.116;6.878;2023-07-16T02:02:05;9.60;;;4.03;;
15082;SDS011;7640;53.116;6.878;2023-07-16T02:04:37;7.90;;;3.70;;
15082;SDS011;7640;53.116;6.878;2023-07-16T02:07:05;7.43;;;3.60;;
15082;SDS011;7640;53.116;6.878;2023-07-16T02:09:37;6.43;;;3.73;;
15082;SDS011;7640;53.116;6.878;2023-07-16T02:12:10;9.53;;;4.63;;
15082;SDS011;7640;53.116;6.878;2023-07-16T02:14:40;8.47;;;3.83;;
15082;SDS011;7640;53.116;6.878;2023-07-16T02:17:18;8.90;;;3.70;;
15082;SDS011;7640;53.116;6.878;2023-07-16T02:19:47;7.03;;;3.87;;
15082;SDS011;7640;53.116;6.878;2023-07-16T02:22:16;13.77;;;4.03;;
15082;SDS011;7640;53.116;6.878;2023-07-16T02:24:44;8.30;;;4.10;;
15082;SDS011;7640;53.116;6.878;2023-07-16T02:27:13;6.27;;;3.63;;
15082;SDS011;7640;53.116;6.878;2023-07-16T02:29:43;8.20;;;4.20;;
15082;SDS011;7640;53.116;6.878;2023-07-16T02:32:12;9.87;;;4.33;;
15082;SDS011;7640;53.116;6.878;2023-07-16T02:34:41;8.77;;;3.50;;
15082;SDS011;7640;53.116;6.878;2023-07-16T02:37:10;8.83;;;4.53;;
15082;SDS011;7640;53.116;6.878;2023-07-16T02:39:38;9.43;;;4.43;;
15082;SDS011;7640;53.116;6.878;2023-07-16T02:42:09;7.40;;;4.20;;
15082;SDS011;7640;53.116;6.878;2023-07-16T02:44:38;8.13;;;4.60;;
15082;SDS011;7640;53.116;6.878;2023-07-16T02:47:11;11.30;;;4.43;;
15082;SDS011;7640;53.116;6.878;2023-07-16T02:49:40;11.43;;;4.70;;
15082;SDS011;7640;53.116;6.878;2023-07-16T02:52:10;11.07;;;5.07;;
15082;SDS011;7640;53.116;6.878;2023-07-16T02:54:38;9.53;;;4.27;;
15082;SDS011;7640;53.116;6.878;2023-07-16T02:57:07;7.47;;;5.10;;
15082;SDS011;7640;53.116;6.878;2023-07-16T02:59:37;12.17;;;5.20;;
15082;SDS011;7640;53.116;6.878;2023-07-16T03:02:06;8.00;;;4.83;;
15082;SDS011;7640;53.116;6.878;2023-07-16T03:04:37;8.30;;;4.87;;
15082;SDS011;7640;53.116;6.878;2023-07-16T03:07:05;12.70;;;5.10;;
15082;SDS011;7640;53.116;6.878;2023-07-16T03:09:34;10.83;;;5.20;;
15082;SDS011;7640;53.116;6.878;2023-07-16T03:12:03;9.53;;;5.07;;
15082;SDS011;7640;53.116;6.878;2023-07-16T03:14:35;11.33;;;5.30;;
15082;SDS011;7640;53.116;6.878;2023-07-16T03:17:04;8.80;;;4.90;;
15082;SDS011;7640;53.116;6.878;2023-07-16T03:19:34;9.13;;;4.93;;
15082;SDS011;7640;53.116;6.878;2023-07-16T03:22:05;8.90;;;4.60;;
15082;SDS011;7640;53.116;6.878;2023-07-16T03:24:34;9.43;;;5.10;;
15082;SDS011;7640;53.116;6.878;2023-07-16T03:27:04;7.47;;;4.60;;
15082;SDS011;7640;53.116;6.878;2023-07-16T03:29:44;8.70;;;4.67;;
15082;SDS011;7640;53.116;6.878;2023-07-16T03:32:13;9.37;;;4.93;;
15082;SDS011;7640;53.116;6.878;2023-07-16T03:34:43;10.33;;;5.47;;
15082;SDS011;7640;53.116;6.878;2023-07-16T03:37:12;9.93;;;4.57;;
15082;SDS011;7640;53.116;6.878;2023-07-16T03:39:40;9.87;;;4.77;;
15082;SDS011;7640;53.116;6.878;2023-07-16T03:42:09;8.83;;;4.60;;
15082;SDS011;7640;53.116;6.878;2023-07-16T03:44:39;12.37;;;5.03;;
15082;SDS011;7640;53.116;6.878;2023-07-16T03:47:07;9.27;;;5.00;;
15082;SDS011;7640;53.116;6.878;2023-07-16T03:49:36;11.20;;;4.83;;
15082;SDS011;7640;53.116;6.878;2023-07-16T03:52:07;9.90;;;5.47;;
15082;SDS011;7640;53.116;6.878;2023-07-16T03:54:36;9.27;;;4.90;;
15082;SDS011;7640;53.116;6.878;2023-07-16T03:57:05;9.53;;;4.43;;
15082;SDS011;7640;53.116;6.878;2023-07-16T03:59:34;10.00;;;5.53;;
15082;SDS011;7640;53.116;6.878;2023-07-16T04:02:03;10.67;;;5.17;;
15082;SDS011;7640;53.116;6.878;2023-07-16T04:04:33;10.40;;;4.90;;
15082;SDS011;7640;53.116;6.878;2023-07-16T04:07:03;10.77;;;5.20;;
15082;SDS011;7640;53.116;6.878;2023-07-16T04:09:34;9.33;;;4.90;;
15082;SDS011;7640;53.116;6.878;2023-07-16T04:12:05;11.37;;;4.60;;
15082;SDS011;7640;53.116;6.878;2023-07-16T04:14:35;10.57;;;5.53;;
15082;SDS011;7640;53.116;6.878;2023-07-16T04:17:04;9.20;;;5.13;;
15082;SDS011;7640;53.116;6.878;2023-07-16T04:19:33;11.60;;;5.40;;
15082;SDS011;7640;53.116;6.878;2023-07-16T04:22:01;10.90;;;5.20;;
15082;SDS011;7640;53.116;6.878;2023-07-16T04:24:31;12.60;;;5.17;;
15082;SDS011;7640;53.116;6.878;2023-07-16T04:27:01;9.83;;;5.20;;
15082;SDS011;7640;53.116;6.878;2023-07-16T04:29:31;10.53;;;5.60;;
15082;SDS011;7640;53.116;6.878;2023-07-16T04:32:00;10.97;;;4.70;;
15082;SDS011;7640;53.116;6.878;2023-07-16T04:34:30;9.30;;;5.17;;
15082;SDS011;7640;53.116;6.878;2023-07-16T04:36:59;8.73;;;5.20;;
15082;SDS011;7640;53.116;6.878;2023-07-16T04:39:28;13.40;;;5.80;;
15082;SDS011;7640;53.116;6.878;2023-07-16T04:41:59;10.13;;;5.57;;
15082;SDS011;7640;53.116;6.878;2023-07-16T04:44:28;9.93;;;5.33;;
15082;SDS011;7640;53.116;6.878;2023-07-16T04:47:01;12.47;;;5.40;;
15082;SDS011;7640;53.116;6.878;2023-07-16T04:49:31;11.60;;;5.17;;
15082;SDS011;7640;53.116;6.878;2023-07-16T04:52:03;9.90;;;5.63;;
15082;SDS011;7640;53.116;6.878;2023-07-16T04:54:36;10.37;;;5.27;;
15082;SDS011;7640;53.116;6.878;2023-07-16T04:57:07;8.80;;;5.10;;
15082;SDS011;7640;53.116;6.878;2023-07-16T04:59:35;8.43;;;5.10;;
15082;SDS011;7640;53.116;6.878;2023-07-16T05:02:05;9.33;;;4.97;;
15082;SDS011;7640;53.116;6.878;2023-07-16T05:04:34;10.30;;;5.33;;
15082;SDS011;7640;53.116;6.878;2023-07-16T05:07:03;11.57;;;5.40;;
15082;SDS011;7640;53.116;6.878;2023-07-16T05:09:33;11.53;;;5.67;;
15082;SDS011;7640;53.116;6.878;2023-07-16T05:12:03;10.70;;;4.30;;
15082;SDS011;7640;53.116;6.878;2023-07-16T05:14:42;8.93;;;5.00;;
15082;SDS011;7640;53.116;6.878;2023-07-16T05:17:12;10.97;;;5.40;;
15082;SDS011;7640;53.116;6.878;2023-07-16T05:19:41;10.03;;;5.30;;
15082;SDS011;7640;53.116;6.878;2023-07-16T05:22:11;11.37;;;4.90;;
15082;SDS011;7640;53.116;6.878;2023-07-16T05:24:39;9.63;;;5.13;;
15082;SDS011;7640;53.116;6.878;2023-07-16T05:27:09;10.50;;;4.47;;
15082;SDS011;7640;53.116;6.878;2023-07-16T05:29:38;11.00;;;4.83;;
15082;SDS011;7640;53.116;6.878;2023-07-16T05:32:07;8.00;;;4.90;;
15082;SDS011;7640;53.116;6.878;2023-07-16T05:34:36;10.87;;;4.60;;
15082;SDS011;7640;53.116;6.878;2023-07-16T05:37:05;8.87;;;4.53;;
15082;SDS011;7640;53.116;6.878;2023-07-16T05:39:33;10.43;;;4.70;;
15082;SDS011;7640;53.116;6.878;2023-07-16T05:42:03;7.47;;;4.50;;
15082;SDS011;7640;53.116;6.878;2023-07-16T05:44:34;7.67;;;4.20;;
15082;SDS011;7640;53.116;6.878;2023-07-16T05:47:04;10.40;;;4.77;;
15082;SDS011;7640;53.116;6.878;2023-07-16T05:49:34;9.03;;;4.23;;
15082;SDS011;7640;53.116;6.878;2023-07-16T05:52:04;8.77;;;4.50;;
15082;SDS011;7640;53.116;6.878;2023-07-16T05:54:33;13.30;;;4.73;;
15082;SDS011;7640;53.116;6.878;2023-07-16T05:57:05;10.23;;;4.47;;
15082;SDS011;7640;53.116;6.878;2023-07-16T05:59:35;7.83;;;4.47;;
15082;SDS011;7640;53.116;6.878;2023-07-16T06:02:04;8.87;;;4.50;;
15082;SDS011;7640;53.116;6.878;2023-07-16T06:04:33;9.47;;;4.77;;
15082;SDS011;7640;53.116;6.878;2023-07-16T06:07:02;6.73;;;4.30;;
15082;SDS011;7640;53.116;6.878;2023-07-16T06:09:32;11.87;;;4.60;;
15082;SDS011;7640;53.116;6.878;2023-07-16T06:12:01;8.23;;;4.43;;
15082;SDS011;7640;53.116;6.878;2023-07-16T06:14:31;8.70;;;4.37;;
15082;SDS011;7640;53.116;6.878;2023-07-16T06:17:03;7.73;;;3.67;;
15082;SDS011;7640;53.116;6.878;2023-07-16T06:19:32;8.00;;;5.50;;
15082;SDS011;7640;53.116;6.878;2023-07-16T06:22:01;7.60;;;4.40;;
15082;SDS011;7640;53.116;6.878;2023-07-16T06:24:30;7.77;;;4.00;;
15082;SDS011;7640;53.116;6.878;2023-07-16T06:26:59;9.60;;;5.03;;
15082;SDS011;7640;53.116;6.878;2023-07-16T06:29:28;9.73;;;4.60;;
15082;SDS011;7640;53.116;6.878;2023-07-16T06:31:56;14.00;;;5.07;;
15082;SDS011;7640;53.116;6.878;2023-07-16T06:34:28;7.33;;;4.40;;
15082;SDS011;7640;53.116;6.878;2023-07-16T06:36:56;10.63;;;4.60;;
15082;SDS011;7640;53.116;6.878;2023-07-16T06:39:25;11.47;;;4.97;;
15082;SDS011;7640;53.116;6.878;2023-07-16T06:41:54;8.33;;;4.60;;
15082;SDS011;7640;53.116;6.878;2023-07-16T06:44:22;7.67;;;4.60;;
15082;SDS011;7640;53.116;6.878;2023-07-16T06:46:54;13.60;;;5.23;;
15082;SDS011;7640;53.116;6.878;2023-07-16T06:49:24;11.33;;;4.70;;
15082;SDS011;7640;53.116;6.878;2023-07-16T06:51:54;8.20;;;4.63;;
15082;SDS011;7640;53.116;6.878;2023-07-16T06:54:23;9.47;;;4.93;;
15082;SDS011;7640;53.116;6.878;2023-07-16T06:56:55;10.30;;;5.03;;
15082;SDS011;7640;53.116;6.878;2023-07-16T06:59:23;11.30;;;5.10;;
15082;SDS011;7640;53.116;6.878;2023-07-16T07:01:52;9.53;;;4.97;;
15082;SDS011;7640;53.116;6.878;2023-07-16T07:04:21;8.87;;;4.73;;
15082;SDS011;7640;53.116;6.878;2023-07-16T07:06:50;10.87;;;5.20;;
15082;SDS011;7640;53.116;6.878;2023-07-16T07:09:20;10.17;;;5.30;;
15082;SDS011;7640;53.116;6.878;2023-07-16T07:11:49;7.43;;;4.87;;
15082;SDS011;7640;53.116;6.878;2023-07-16T07:14:17;11.67;;;5.53;;
15082;SDS011;7640;53.116;6.878;2023-07-16T07:16:46;11.43;;;4.97;;
15082;SDS011;7640;53.116;6.878;2023-07-16T07:19:15;8.17;;;5.10;;
15082;SDS011;7640;53.116;6.878;2023-07-16T07:21:46;11.50;;;5.10;;
15082;SDS011;7640;53.116;6.878;2023-07-16T07:24:16;9.37;;;5.10;;
15082;SDS011;7640;53.116;6.878;2023-07-16T07:26:47;8.63;;;4.97;;
15082;SDS011;7640;53.116;6.878;2023-07-16T07:29:15;10.63;;;5.40;;
15082;SDS011;7640;53.116;6.878;2023-07-16T07:31:44;8.60;;;5.30;;
15082;SDS011;7640;53.116;6.878;2023-07-16T07:34:17;7.87;;;5.13;;
15082;SDS011;7640;53.116;6.878;2023-07-16T07:36:45;8.70;;;5.07;;
15082;SDS011;7640;53.116;6.878;2023-07-16T07:39:15;9.17;;;5.33;;
15082;SDS011;7640;53.116;6.878;2023-07-16T07:41:44;8.93;;;5.20;;
15082;SDS011;7640;53.116;6.878;2023-07-16T07:44:15;7.40;;;4.73;;
15082;SDS011;7640;53.116;6.878;2023-07-16T07:46:44;9.33;;;5.33;;
15082;SDS011;7640;53.116;6.878;2023-07-16T07:49:12;8.47;;;4.90;;
15082;SDS011;7640;53.116;6.878;2023-07-16T07:51:41;7.90;;;4.70;;
15082;SDS011;7640;53.116;6.878;2023-07-16T07:54:10;8.37;;;4.77;;
15082;SDS011;7640;53.116;6.878;2023-07-16T07:56:39;8.65;;;4.75;;
15082;SDS011;7640;53.116;6.878;2023-07-16T07:59:07;6.73;;;4.63;;
15082;SDS011;7640;53.116;6.878;2023-07-16T08:01:41;9.87;;;5.00;;
15082;SDS011;7640;53.116;6.878;2023-07-16T08:04:10;8.93;;;5.03;;
15082;SDS011;7640;53.116;6.878;2023-07-16T08:06:38;9.37;;;4.93;;
15082;SDS011;7640;53.116;6.878;2023-07-16T08:09:07;7.03;;;4.80;;
15082;SDS011;7640;53.116;6.878;2023-07-16T08:11:36;10.80;;;5.03;;
15082;SDS011;7640;53.116;6.878;2023-07-16T08:14:05;9.57;;;5.20;;
15082;SDS011;7640;53.116;6.878;2023-07-16T08:16:34;9.63;;;4.80;;
15082;SDS011;7640;53.116;6.878;2023-07-16T08:19:05;9.45;;;4.70;;
15082;SDS011;7640;53.116;6.878;2023-07-16T08:21:33;7.00;;;4.93;;
15082;SDS011;7640;53.116;6.878;2023-07-16T08:24:04;7.88;;;5.25;;
15082;SDS011;7640;53.116;6.878;2023-07-16T08:26:33;7.75;;;4.35;;
15082;SDS011;7640;53.116;6.878;2023-07-16T08:29:03;9.23;;;4.90;;
15082;SDS011;7640;53.116;6.878;2023-07-16T08:31:31;10.25;;;4.78;;
15082;SDS011;7640;53.116;6.878;2023-07-16T08:34:00;6.32;;;4.50;;
15082;SDS011;7640;53.116;6.878;2023-07-16T08:36:32;7.20;;;5.18;;
15082;SDS011;7640;53.116;6.878;2023-07-16T08:39:02;8.53;;;5.43;;
15082;SDS011;7640;53.116;6.878;2023-07-16T08:41:31;9.87;;;5.03;;
15082;SDS011;7640;53.116;6.878;2023-07-16T08:44:00;9.57;;;4.72;;
15082;SDS011;7640;53.116;6.878;2023-07-16T08:46:29;7.40;;;4.45;;
15082;SDS011;7640;53.116;6.878;2023-07-16T08:48:58;8.88;;;5.13;;
15082;SDS011;7640;53.116;6.878;2023-07-16T08:51:28;12.93;;;5.00;;
15082;SDS011;7640;53.116;6.878;2023-07-16T08:53:59;9.43;;;4.68;;
15082;SDS011;7640;53.116;6.878;2023-07-16T08:56:29;12.03;;;4.93;;
15082;SDS011;7640;53.116;6.878;2023-07-16T08:58:57;8.43;;;5.40;;
15082;SDS011;7640;53.116;6.878;2023-07-16T09:01:27;8.40;;;5.30;;
15082;SDS011;7640;53.116;6.878;2023-07-16T09:03:56;8.20;;;5.13;;
15082;SDS011;7640;53.116;6.878;2023-07-16T09:06:25;11.27;;;5.25;;
15082;SDS011;7640;53.116;6.878;2023-07-16T09:08:56;9.95;;;5.10;;
15082;SDS011;7640;53.116;6.878;2023-07-16T09:11:25;14.18;;;5.88;;
15082;SDS011;7640;53.116;6.878;2023-07-16T09:13:54;11.70;;;5.50;;
15082;SDS011;7640;53.116;6.878;2023-07-16T09:16:22;9.23;;;5.55;;
15082;SDS011;7640;53.116;6.878;2023-07-16T09:18:52;9.75;;;4.95;;
15082;SDS011;7640;53.116;6.878;2023-07-16T09:21:20;7.75;;;5.50;;
15082;SDS011;7640;53.116;6.878;2023-07-16T09:23:49;7.93;;;5.20;;
15082;SDS011;7640;53.116;6.878;2023-07-16T09:26:19;8.55;;;5.20;;
15082;SDS011;7640;53.116;6.878;2023-07-16T09:28:48;9.93;;;5.25;;
15082;SDS011;7640;53.116;6.878;2023-07-16T09:31:16;6.25;;;4.75;;
15082;SDS011;7640;53.116;6.878;2023-07-16T09:33:46;10.10;;;5.22;;
15082;SDS011;7640;53.116;6.878;2023-07-16T09:36:22;7.63;;;4.70;;
15082;SDS011;7640;53.116;6.878;2023-07-16T09:38:52;9.00;;;5.07;;
15082;SDS011;7640;53.116;6.878;2023-07-16T09:41:24;9.38;;;4.70;;
15082;SDS011;7640;53.116;6.878;2023-07-16T09:43:54;10.45;;;5.13;;
15082;SDS011;7640;53.116;6.878;2023-07-16T09:46:23;7.55;;;4.32;;
15082;SDS011;7640;53.116;6.878;2023-07-16T09:48:52;7.90;;;4.78;;
15082;SDS011;7640;53.116;6.878;2023-07-16T09:51:20;6.50;;;4.72;;
15082;SDS011;7640;53.116;6.878;2023-07-16T09:53:51;6.55;;;5.10;;
15082;SDS011;7640;53.116;6.878;2023-07-16T09:56:20;7.40;;;4.68;;
15082;SDS011;7640;53.116;6.878;2023-07-16T09:58:50;8.73;;;4.80;;
15082;SDS011;7640;53.116;6.878;2023-07-16T10:01:20;8.85;;;4.65;;
15082;SDS011;7640;53.116;6.878;2023-07-16T10:03:49;8.40;;;4.35;;
15082;SDS011;7640;53.116;6.878;2023-07-16T10:06:19;7.22;;;4.75;;
15082;SDS011;7640;53.116;6.878;2023-07-16T10:08:48;6.88;;;4.28;;
15082;SDS011;7640;53.116;6.878;2023-07-16T10:11:18;10.13;;;4.63;;
15082;SDS011;7640;53.116;6.878;2023-07-16T10:13:50;8.00;;;4.38;;
15082;SDS011;7640;53.116;6.878;2023-07-16T10:16:19;7.03;;;4.45;;
15082;SDS011;7640;53.116;6.878;2023-07-16T10:18:50;7.13;;;4.32;;
15082;SDS011;7640;53.116;6.878;2023-07-16T10:21:24;7.88;;;4.07;;
15082;SDS011;7640;53.116;6.878;2023-07-16T10:23:57;8.23;;;4.20;;
15082;SDS011;7640;53.116;6.878;2023-07-16T10:26:27;8.32;;;4.93;;
15082;SDS011;7640;53.116;6.878;2023-07-16T10:28:59;6.97;;;4.40;;
15082;SDS011;7640;53.116;6.878;2023-07-16T10:31:27;5.38;;;4.07;;
15082;SDS011;7640;53.116;6.878;2023-07-16T10:34:01;6.90;;;4.78;;
15082;SDS011;7640;53.116;6.878;2023-07-16T10:36:36;6.25;;;4.80;;
15082;SDS011;7640;53.116;6.878;2023-07-16T10:39:05;8.52;;;4.72;;
15082;SDS011;7640;53.116;6.878;2023-07-16T10:41:34;5.50;;;4.20;;
15082;SDS011;7640;53.116;6.878;2023-07-16T10:44:07;7.90;;;4.80;;
15082;SDS011;7640;53.116;6.878;2023-07-16T10:46:36;6.55;;;4.93;;
15082;SDS011;7640;53.116;6.878;2023-07-16T10:49:05;7.85;;;5.05;;
15082;SDS011;7640;53.116;6.878;2023-07-16T10:51:34;8.85;;;4.45;;
15082;SDS011;7640;53.116;6.878;2023-07-16T10:54:03;6.72;;;4.85;;
15082;SDS011;7640;53.116;6.878;2023-07-16T10:56:34;6.93;;;4.43;;
15082;SDS011;7640;53.116;6.878;2023-07-16T10:59:05;7.32;;;4.72;;
15082;SDS011;7640;53.116;6.878;2023-07-16T11:01:38;8.65;;;5.10;;
15082;SDS011;7640;53.116;6.878;2023-07-16T11:04:08;8.52;;;4.85;;
15082;SDS011;7640;53.116;6.878;2023-07-16T11:06:36;7.80;;;5.10;;
15082;SDS011;7640;53.116;6.878;2023-07-16T11:09:05;8.18;;;4.75;;
15082;SDS011;7640;53.116;6.878;2023-07-16T11:11:35;8.00;;;5.18;;
15082;SDS011;7640;53.116;6.878;2023-07-16T11:14:06;7.28;;;4.55;;
15082;SDS011;7640;53.116;6.878;2023-07-16T11:16:36;5.85;;;4.85;;
15082;SDS011;7640;53.116;6.878;2023-07-16T11:19:05;7.60;;;4.90;;
15082;SDS011;7640;53.116;6.878;2023-07-16T11:21:35;6.50;;;4.57;;
15082;SDS011;7640;53.116;6.878;2023-07-16T11:24:08;6.40;;;4.28;;
15082;SDS011;7640;53.116;6.878;2023-07-16T11:26:37;5.95;;;4.25;;
15082;SDS011;7640;53.116;6.878;2023-07-16T11:29:14;7.38;;;4.90;;
15082;SDS011;7640;53.116;6.878;2023-07-16T11:31:43;5.57;;;4.00;;
15082;SDS011;7640;53.116;6.878;2023-07-16T11:34:12;6.53;;;4.45;;
15082;SDS011;7640;53.116;6.878;2023-07-16T11:36:41;11.13;;;4.38;;
15082;SDS011;7640;53.116;6.878;2023-07-16T11:39:13;5.03;;;3.78;;
15082;SDS011;7640;53.116;6.878;2023-07-16T11:41:42;6.47;;;4.15;;
15082;SDS011;7640;53.116;6.878;2023-07-16T11:44:26;8.32;;;4.20;;
15082;SDS011;7640;53.116;6.878;2023-07-16T11:47:02;5.90;;;4.15;;
15082;SDS011;7640;53.116;6.878;2023-07-16T11:49:31;9.35;;;4.65;;
15082;SDS011;7640;53.116;6.878;2023-07-16T11:52:00;7.00;;;4.20;;
15082;SDS011;7640;53.116;6.878;2023-07-16T11:54:29;6.95;;;4.93;;
15082;SDS011;7640;53.116;6.878;2023-07-16T11:56:58;8.13;;;4.60;;
15082;SDS011;7640;53.116;6.878;2023-07-16T11:59:28;7.35;;;4.00;;
15082;SDS011;7640;53.116;6.878;2023-07-16T12:01:59;6.72;;;4.07;;
15082;SDS011;7640;53.116;6.878;2023-07-16T12:04:28;5.75;;;4.50;;
15082;SDS011;7640;53.116;6.878;2023-07-16T12:06:56;8.40;;;4.70;;
15082;SDS011;7640;53.116;6.878;2023-07-16T12:09:25;8.60;;;4.93;;
15082;SDS011;7640;53.116;6.878;2023-07-16T12:11:54;7.47;;;5.05;;
15082;SDS011;7640;53.116;6.878;2023-07-16T12:14:23;9.57;;;5.15;;
15082;SDS011;7640;53.116;6.878;2023-07-16T12:16:56;8.10;;;5.13;;
15082;SDS011;7640;53.116;6.878;2023-07-16T12:19:24;7.57;;;4.88;;
15082;SDS011;7640;53.116;6.878;2023-07-16T12:21:54;6.90;;;4.85;;
15082;SDS011;7640;53.116;6.878;2023-07-16T12:24:24;6.70;;;4.53;;
15082;SDS011;7640;53.116;6.878;2023-07-16T12:26:53;8.65;;;5.03;;
15082;SDS011;7640;53.116;6.878;2023-07-16T12:29:21;7.38;;;4.93;;
15082;SDS011;7640;53.116;6.878;2023-07-16T12:31:51;10.75;;;5.22;;
15082;SDS011;7640;53.116;6.878;2023-07-16T12:34:21;6.35;;;5.00;;
15082;SDS011;7640;53.116;6.878;2023-07-16T12:36:50;7.82;;;4.75;;
15082;SDS011;7640;53.116;6.878;2023-07-16T12:39:20;6.82;;;4.70;;
15082;SDS011;7640;53.116;6.878;2023-07-16T12:41:52;7.88;;;4.10;;
15082;SDS011;7640;53.116;6.878;2023-07-16T12:44:43;6.30;;;4.55;;
15082;SDS011;7640;53.116;6.878;2023-07-16T12:50:29;8.45;;;4.65;;
15082;SDS011;7640;53.116;6.878;2023-07-16T12:52:58;6.53;;;4.65;;
15082;SDS011;7640;53.116;6.878;2023-07-16T12:55:27;6.20;;;4.00;;
15082;SDS011;7640;53.116;6.878;2023-07-16T12:57:57;7.97;;;5.03;;
15082;SDS011;7640;53.116;6.878;2023-07-16T13:00:26;5.80;;;4.07;;
15082;SDS011;7640;53.116;6.878;2023-07-16T13:02:56;6.95;;;4.85;;
15082;SDS011;7640;53.116;6.878;2023-07-16T13:05:25;8.35;;;5.10;;
15082;SDS011;7640;53.116;6.878;2023-07-16T13:07:54;6.70;;;5.07;;
15082;SDS011;7640;53.116;6.878;2023-07-16T13:10:23;6.15;;;4.82;;
15082;SDS011;7640;53.116;6.878;2023-07-16T13:12:52;6.80;;;5.07;;
15082;SDS011;7640;53.116;6.878;2023-07-16T13:18:12;8.65;;;5.03;;
15082;SDS011;7640;53.116;6.878;2023-07-16T13:20:43;6.10;;;4.60;;
15082;SDS011;7640;53.116;6.878;2023-07-16T13:23:17;7.10;;;5.22;;
15082;SDS011;7640;53.116;6.878;2023-07-16T13:25:47;10.93;;;5.60;;
15082;SDS011;7640;53.116;6.878;2023-07-16T13:28:24;8.23;;;4.82;;
15082;SDS011;7640;53.116;6.878;2023-07-16T13:30:54;7.05;;;5.10;;
15082;SDS011;7640;53.116;6.878;2023-07-16T13:33:28;7.65;;;5.70;;
15082;SDS011;7640;53.116;6.878;2023-07-16T13:35:58;7.57;;;5.55;;
15082;SDS011;7640;53.116;6.878;2023-07-16T13:38:29;8.80;;;5.40;;
15082;SDS011;7640;53.116;6.878;2023-07-16T13:40:58;6.72;;;5.22;;
15082;SDS011;7640;53.116;6.878;2023-07-16T13:43:28;7.65;;;5.20;;
15082;SDS011;7640;53.116;6.878;2023-07-16T13:45:56;10.32;;;5.30;;
15082;SDS011;7640;53.116;6.878;2023-07-16T13:48:25;8.32;;;5.47;;
15082;SDS011;7640;53.116;6.878;2023-07-16T13:51:04;8.30;;;5.57;;
15082;SDS011;7640;53.116;6.878;2023-07-16T13:53:33;8.90;;;5.45;;
15082;SDS011;7640;53.116;6.878;2023-07-16T13:56:03;7.60;;;4.82;;
15082;SDS011;7640;53.116;6.878;2023-07-16T13:58:33;9.10;;;4.63;;
15082;SDS011;7640;53.116;6.878;2023-07-16T14:01:03;6.00;;;4.60;;
15082;SDS011;7640;53.116;6.878;2023-07-16T14:03:32;7.43;;;4.10;;
15082;SDS011;7640;53.116;6.878;2023-07-16T14:06:02;5.13;;;3.53;;
15082;SDS011;7640;53.116;6.878;2023-07-16T14:08:32;7.47;;;3.75;;
15082;SDS011;7640;53.116;6.878;2023-07-16T14:11:02;4.78;;;3.05;;
15082;SDS011;7640;53.116;6.878;2023-07-16T14:13:31;4.22;;;3.20;;
15082;SDS011;7640;53.116;6.878;2023-07-16T14:16:00;6.05;;;2.95;;
15082;SDS011;7640;53.116;6.878;2023-07-16T14:18:30;4.28;;;3.35;;
15082;SDS011;7640;53.116;6.878;2023-07-16T14:20:59;7.32;;;3.50;;
15082;SDS011;7640;53.116;6.878;2023-07-16T14:23:31;3.72;;;2.50;;
15082;SDS011;7640;53.116;6.878;2023-07-16T14:26:00;3.85;;;2.90;;
15082;SDS011;7640;53.116;6.878;2023-07-16T14:28:29;4.75;;;2.85;;
15082;SDS011;7640;53.116;6.878;2023-07-16T14:30:59;3.92;;;2.70;;
15082;SDS011;7640;53.116;6.878;2023-07-16T14:33:28;4.40;;;2.97;;
15082;SDS011;7640;53.116;6.878;2023-07-16T14:35:57;5.80;;;2.97;;
15082;SDS011;7640;53.116;6.878;2023-07-16T14:38:26;5.35;;;3.08;;
15082;SDS011;7640;53.116;6.878;2023-07-16T14:40:56;5.35;;;3.15;;
15082;SDS011;7640;53.116;6.878;2023-07-16T14:43:25;6.07;;;2.88;;
15082;SDS011;7640;53.116;6.878;2023-07-16T14:45:54;5.78;;;3.08;;
15082;SDS011;7640;53.116;6.878;2023-07-16T14:48:23;4.00;;;2.58;;
15082;SDS011;7640;53.116;6.878;2023-07-16T14:50:53;5.22;;;2.97;;
15082;SDS011;7640;53.116;6.878;2023-07-16T14:53:22;5.85;;;2.80;;
15082;SDS011;7640;53.116;6.878;2023-07-16T14:55:51;4.60;;;2.70;;
15082;SDS011;7640;53.116;6.878;2023-07-16T14:58:21;5.03;;;2.85;;
15082;SDS011;7640;53.116;6.878;2023-07-16T15:00:50;5.00;;;2.92;;
15082;SDS011;7640;53.116;6.878;2023-07-16T15:03:18;6.70;;;3.35;;
15082;SDS011;7640;53.116;6.878;2023-07-16T15:05:47;6.22;;;3.13;;
15082;SDS011;7640;53.116;6.878;2023-07-16T15:08:16;6.80;;;3.20;;
15082;SDS011;7640;53.116;6.878;2023-07-16T15:10:47;8.18;;;3.08;;
15082;SDS011;7640;53.116;6.878;2023-07-16T15:13:16;8.00;;;3.25;;
15082;SDS011;7640;53.116;6.878;2023-07-16T15:15:48;4.93;;;3.17;;
15082;SDS011;7640;53.116;6.878;2023-07-16T15:18:18;4.95;;;2.75;;
15082;SDS011;7640;53.116;6.878;2023-07-16T15:20:47;3.80;;;2.70;;
15082;SDS011;7640;53.116;6.878;2023-07-16T15:23:16;6.30;;;2.78;;